sensor_id;sensor_type;location;lat;lon;timestamp;temperature;humidity
40153;DHT22;26371;56.992;23.912;2023-04-23T00:01:29;5.50;99.90
40153;DHT22;26371;56.992;23.912;2023-04-23T00:04:01;5.50;99.90
40153;DHT22;26371;56.992;23.912;2023-04-23T00:06:33;5.50;99.90
40153;DHT22;26371;56.992;23.912;2023-04-23T00:09:02;5.60;99.90
40153;DHT22;26371;56.992;23.912;2023-04-23T00:11:31;5.60;99.90
40153;DHT22;26371;56.992;23.912;2023-04-23T00:13:59;5.60;99.90
40153;DHT22;26371;56.992;23.912;2023-04-23T00:16:28;5.60;99.90
40153;DHT22;26371;56.992;23.912;2023-04-23T00:18:58;5.60;99.90
40153;DHT22;26371;56.992;23.912;2023-04-23T00:21:27;5.60;99.90
40153;DHT22;26371;56.992;23.912;2023-04-23T00:23:56;5.60;99.90
40153;DHT22;26371;56.992;23.912;2023-04-23T00:26:24;5.60;99.90
40153;DHT22;26371;56.992;23.912;2023-04-23T00:28:52;5.60;99.90
40153;DHT22;26371;56.992;23.912;2023-04-23T00:31:23;5.60;99.90
40153;DHT22;26371;56.992;23.912;2023-04-23T00:33:53;5.50;99.90
40153;DHT22;26371;56.992;23.912;2023-04-23T00:36:23;5.50;99.90
40153;DHT22;26371;56.992;23.912;2023-04-23T00:38:52;5.50;99.90
40153;DHT22;26371;56.992;23.912;2023-04-23T00:41:20;5.50;99.90
40153;DHT22;26371;56.992;23.912;2023-04-23T00:43:49;5.60;99.90
40153;DHT22;26371;56.992;23.912;2023-04-23T00:46:19;5.50;99.90
40153;DHT22;26371;56.992;23.912;2023-04-23T00:48:49;5.50;99.90
40153;DHT22;26371;56.992;23.912;2023-04-23T00:51:18;5.50;99.90
40153;DHT22;26371;56.992;23.912;2023-04-23T00:53:48;5.50;99.90
40153;DHT22;26371;56.992;23.912;2023-04-23T00:56:16;5.50;99.90
40153;DHT22;26371;56.992;23.912;2023-04-23T00:58:45;5.50;99.90
40153;DHT22;26371;56.992;23.912;2023-04-23T01:01:13;5.50;99.90
40153;DHT22;26371;56.992;23.912;2023-04-23T01:03:44;5.50;99.90
40153;DHT22;26371;56.992;23.912;2023-04-23T01:06:12;5.40;99.90
40153;DHT22;26371;56.992;23.912;2023-04-23T01:08:41;5.40;99.90
40153;DHT22;26371;56.992;23.912;2023-04-23T01:11:12;5.40;99.90
40153;DHT22;26371;56.992;23.912;2023-04-23T01:13:41;5.40;99.90
40153;DHT22;26371;56.992;23.912;2023-04-23T01:16:10;5.40;99.90
40153;DHT22;26371;56.992;23.912;2023-04-23T01:18:38;5.40;99.90
40153;DHT22;26371;56.992;23.912;2023-04-23T01:21:08;5.30;99.90
40153;DHT22;26371;56.992;23.912;2023-04-23T01:23:38;5.30;99.90
40153;DHT22;26371;56.992;23.912;2023-04-23T01:26:06;5.30;99.90
40153;DHT22;26371;56.992;23.912;2023-04-23T01:28:36;5.30;99.90
40153;DHT22;26371;56.992;23.912;2023-04-23T01:31:05;5.30;99.90
40153;DHT22;26371;56.992;23.912;2023-04-23T01:33:34;5.30;99.90
40153;DHT22;26371;56.992;23.912;2023-04-23T01:36:02;5.30;99.90
40153;DHT22;26371;56.992;23.912;2023-04-23T01:38:31;5.20;99.90
40153;DHT22;26371;56.992;23.912;2023-04-23T01:41:01;5.20;99.90
40153;DHT22;26371;56.992;23.912;2023-04-23T01:43:30;5.20;99.90
40153;DHT22;26371;56.992;23.912;2023-04-23T01:45:58;5.20;99.90
40153;DHT22;26371;56.992;23.912;2023-04-23T01:48:27;5.20;99.90
40153;DHT22;26371;56.992;23.912;2023-04-23T01:50:55;5.30;99.90
40153;DHT22;26371;56.992;23.912;2023-04-23T01:53:24;5.30;99.90
40153;DHT22;26371;56.992;23.912;2023-04-23T01:55:52;5.30;99.90
40153;DHT22;26371;56.992;23.912;2023-04-23T01:58:22;5.30;99.90
40153;DHT22;26371;56.992;23.912;2023-04-23T02:00:52;5.30;99.90
40153;DHT22;26371;56.992;23.912;2023-04-23T02:03:21;5.30;99.90
40153;DHT22;26371;56.992;23.912;2023-04-23T02:05:50;5.30;99.90
40153;DHT22;26371;56.992;23.912;2023-04-23T02:08:20;5.20;99.90
40153;DHT22;26371;56.992;23.912;2023-04-23T02:10:48;5.20;99.90
40153;DHT22;26371;56.992;23.912;2023-04-23T02:13:17;5.20;99.90
40153;DHT22;26371;56.992;23.912;2023-04-23T02:15:47;5.20;99.90
40153;DHT22;26371;56.992;23.912;2023-04-23T02:18:15;5.20;99.90
40153;DHT22;26371;56.992;23.912;2023-04-23T02:20:44;5.20;99.90
40153;DHT22;26371;56.992;23.912;2023-04-23T02:23:12;5.10;99.90
40153;DHT22;26371;56.992;23.912;2023-04-23T02:25:40;5.20;99.90
40153;DHT22;26371;56.992;23.912;2023-04-23T02:28:09;5.20;99.90
40153;DHT22;26371;56.992;23.912;2023-04-23T02:30:40;5.20;99.90
40153;DHT22;26371;56.992;23.912;2023-04-23T02:33:13;5.10;99.90
40153;DHT22;26371;56.992;23.912;2023-04-23T02:35:41;5.10;99.90
40153;DHT22;26371;56.992;23.912;2023-04-23T02:38:10;5.10;99.90
40153;DHT22;26371;56.992;23.912;2023-04-23T02:40:38;5.00;99.90
40153;DHT22;26371;56.992;23.912;2023-04-23T02:43:06;5.00;99.90
40153;DHT22;26371;56.992;23.912;2023-04-23T02:45:35;4.90;99.90
40153;DHT22;26371;56.992;23.912;2023-04-23T02:48:04;4.90;99.90
40153;DHT22;26371;56.992;23.912;2023-04-23T02:50:33;4.80;99.90
40153;DHT22;26371;56.992;23.912;2023-04-23T02:53:02;4.80;99.90
40153;DHT22;26371;56.992;23.912;2023-04-23T02:55:31;4.80;99.90
40153;DHT22;26371;56.992;23.912;2023-04-23T02:58:00;4.70;99.90
40153;DHT22;26371;56.992;23.912;2023-04-23T03:00:37;4.70;99.90
40153;DHT22;26371;56.992;23.912;2023-04-23T03:03:05;4.60;99.90
40153;DHT22;26371;56.992;23.912;2023-04-23T03:05:37;4.60;99.90
40153;DHT22;26371;56.992;23.912;2023-04-23T03:08:06;4.50;99.90
40153;DHT22;26371;56.992;23.912;2023-04-23T03:13:03;4.40;99.90
40153;DHT22;26371;56.992;23.912;2023-04-23T03:15:32;4.40;99.90
40153;DHT22;26371;56.992;23.912;2023-04-23T03:18:01;4.40;99.90
40153;DHT22;26371;56.992;23.912;2023-04-23T03:20:30;4.40;99.90
40153;DHT22;26371;56.992;23.912;2023-04-23T03:23:00;4.40;99.90
40153;DHT22;26371;56.992;23.912;2023-04-23T03:25:29;4.40;99.90
40153;DHT22;26371;56.992;23.912;2023-04-23T03:27:58;4.40;99.90
40153;DHT22;26371;56.992;23.912;2023-04-23T03:30:27;4.40;99.90
40153;DHT22;26371;56.992;23.912;2023-04-23T03:32:56;4.40;99.90
40153;DHT22;26371;56.992;23.912;2023-04-23T03:35:24;4.50;99.90
40153;DHT22;26371;56.992;23.912;2023-04-23T03:37:55;4.40;99.90
40153;DHT22;26371;56.992;23.912;2023-04-23T03:40:25;4.40;99.90
40153;DHT22;26371;56.992;23.912;2023-04-23T03:42:58;4.40;99.90
40153;DHT22;26371;56.992;23.912;2023-04-23T03:45:43;4.40;99.90
40153;DHT22;26371;56.992;23.912;2023-04-23T03:48:12;4.50;99.90
40153;DHT22;26371;56.992;23.912;2023-04-23T03:50:41;4.50;99.90
40153;DHT22;26371;56.992;23.912;2023-04-23T03:53:23;4.60;99.90
40153;DHT22;26371;56.992;23.912;2023-04-23T03:56:12;4.70;99.90
40153;DHT22;26371;56.992;23.912;2023-04-23T03:58:48;4.70;99.90
40153;DHT22;26371;56.992;23.912;2023-04-23T04:01:17;4.90;99.90
40153;DHT22;26371;56.992;23.912;2023-04-23T04:03:46;4.90;99.90
40153;DHT22;26371;56.992;23.912;2023-04-23T04:06:15;5.00;99.90
40153;DHT22;26371;56.992;23.912;2023-04-23T04:08:43;5.10;99.90
40153;DHT22;26371;56.992;23.912;2023-04-23T04:11:13;5.20;99.90
40153;DHT22;26371;56.992;23.912;2023-04-23T04:13:41;5.40;99.90
40153;DHT22;26371;56.992;23.912;2023-04-23T04:16:10;5.50;99.90
40153;DHT22;26371;56.992;23.912;2023-04-23T04:18:38;5.60;99.90
40153;DHT22;26371;56.992;23.912;2023-04-23T04:21:06;5.70;99.90
40153;DHT22;26371;56.992;23.912;2023-04-23T04:23:35;5.80;99.90
40153;DHT22;26371;56.992;23.912;2023-04-23T04:26:05;6.00;99.90
40153;DHT22;26371;56.992;23.912;2023-04-23T04:28:35;6.10;99.90
40153;DHT22;26371;56.992;23.912;2023-04-23T04:31:03;6.20;99.90
40153;DHT22;26371;56.992;23.912;2023-04-23T04:33:32;6.20;99.90
40153;DHT22;26371;56.992;23.912;2023-04-23T04:36:01;6.30;99.90
40153;DHT22;26371;56.992;23.912;2023-04-23T04:38:31;6.30;99.90
40153;DHT22;26371;56.992;23.912;2023-04-23T04:41:00;6.40;99.90
40153;DHT22;26371;56.992;23.912;2023-04-23T04:43:28;6.50;99.90
40153;DHT22;26371;56.992;23.912;2023-04-23T04:45:58;6.50;99.90
40153;DHT22;26371;56.992;23.912;2023-04-23T04:48:27;6.60;99.90
40153;DHT22;26371;56.992;23.912;2023-04-23T04:50:55;6.60;99.90
40153;DHT22;26371;56.992;23.912;2023-04-23T04:53:23;6.70;99.90
40153;DHT22;26371;56.992;23.912;2023-04-23T04:55:52;6.80;99.90
40153;DHT22;26371;56.992;23.912;2023-04-23T04:58:21;6.90;99.90
40153;DHT22;26371;56.992;23.912;2023-04-23T05:00:50;7.00;99.90
40153;DHT22;26371;56.992;23.912;2023-04-23T05:03:20;7.00;99.90
40153;DHT22;26371;56.992;23.912;2023-04-23T05:05:49;7.10;99.90
40153;DHT22;26371;56.992;23.912;2023-04-23T05:08:17;7.10;99.90
40153;DHT22;26371;56.992;23.912;2023-04-23T05:10:47;7.20;99.90
40153;DHT22;26371;56.992;23.912;2023-04-23T05:13:16;7.30;99.90
40153;DHT22;26371;56.992;23.912;2023-04-23T05:15:45;7.30;99.90
40153;DHT22;26371;56.992;23.912;2023-04-23T05:18:13;7.40;99.90
40153;DHT22;26371;56.992;23.912;2023-04-23T05:20:43;7.50;99.90
40153;DHT22;26371;56.992;23.912;2023-04-23T05:23:11;7.50;99.90
40153;DHT22;26371;56.992;23.912;2023-04-23T05:25:40;7.60;99.90
40153;DHT22;26371;56.992;23.912;2023-04-23T05:28:08;7.70;99.90
40153;DHT22;26371;56.992;23.912;2023-04-23T05:30:38;7.80;99.90
40153;DHT22;26371;56.992;23.912;2023-04-23T05:33:06;7.80;99.90
40153;DHT22;26371;56.992;23.912;2023-04-23T05:35:35;8.00;99.90
40153;DHT22;26371;56.992;23.912;2023-04-23T05:38:05;8.20;99.90
40153;DHT22;26371;56.992;23.912;2023-04-23T05:40:33;8.20;99.90
40153;DHT22;26371;56.992;23.912;2023-04-23T05:43:01;8.30;99.90
40153;DHT22;26371;56.992;23.912;2023-04-23T05:45:31;8.50;99.90
40153;DHT22;26371;56.992;23.912;2023-04-23T05:47:59;8.60;99.90
40153;DHT22;26371;56.992;23.912;2023-04-23T05:50:28;8.80;99.90
40153;DHT22;26371;56.992;23.912;2023-04-23T05:52:56;9.00;99.90
40153;DHT22;26371;56.992;23.912;2023-04-23T05:55:25;9.10;99.90
40153;DHT22;26371;56.992;23.912;2023-04-23T05:57:54;9.30;99.90
40153;DHT22;26371;56.992;23.912;2023-04-23T06:15:16;10.70;99.90
40153;DHT22;26371;56.992;23.912;2023-04-23T06:17:44;10.80;99.90
40153;DHT22;26371;56.992;23.912;2023-04-23T06:20:13;10.90;99.90
40153;DHT22;26371;56.992;23.912;2023-04-23T06:25:11;11.20;99.90
40153;DHT22;26371;56.992;23.912;2023-04-23T06:27:39;11.30;99.90
40153;DHT22;26371;56.992;23.912;2023-04-23T06:30:16;11.50;99.90
40153;DHT22;26371;56.992;23.912;2023-04-23T06:32:45;11.60;99.90
40153;DHT22;26371;56.992;23.912;2023-04-23T06:35:13;11.80;99.90
40153;DHT22;26371;56.992;23.912;2023-04-23T06:37:43;11.90;99.90
40153;DHT22;26371;56.992;23.912;2023-04-23T06:40:11;12.00;99.90
40153;DHT22;26371;56.992;23.912;2023-04-23T06:42:40;12.10;99.90
40153;DHT22;26371;56.992;23.912;2023-04-23T06:45:18;12.20;99.90
40153;DHT22;26371;56.992;23.912;2023-04-23T06:47:47;12.30;99.90
40153;DHT22;26371;56.992;23.912;2023-04-23T06:50:15;12.50;99.90
40153;DHT22;26371;56.992;23.912;2023-04-23T06:52:44;12.50;99.90
40153;DHT22;26371;56.992;23.912;2023-04-23T06:55:12;12.60;99.90
40153;DHT22;26371;56.992;23.912;2023-04-23T06:57:41;12.90;99.90
40153;DHT22;26371;56.992;23.912;2023-04-23T07:00:09;12.90;99.90
40153;DHT22;26371;56.992;23.912;2023-04-23T07:02:42;13.00;99.90
40153;DHT22;26371;56.992;23.912;2023-04-23T07:05:10;13.10;99.90
40153;DHT22;26371;56.992;23.912;2023-04-23T07:07:39;13.10;99.90
40153;DHT22;26371;56.992;23.912;2023-04-23T07:10:09;13.20;99.90
40153;DHT22;26371;56.992;23.912;2023-04-23T07:12:40;13.30;99.90
40153;DHT22;26371;56.992;23.912;2023-04-23T07:15:09;13.50;99.90
40153;DHT22;26371;56.992;23.912;2023-04-23T07:17:37;13.60;99.90
40153;DHT22;26371;56.992;23.912;2023-04-23T07:20:08;13.70;99.90
40153;DHT22;26371;56.992;23.912;2023-04-23T07:22:36;13.80;99.90
40153;DHT22;26371;56.992;23.912;2023-04-23T07:25:04;13.90;99.90
40153;DHT22;26371;56.992;23.912;2023-04-23T07:27:34;14.00;99.90
40153;DHT22;26371;56.992;23.912;2023-04-23T07:30:03;14.10;99.90
40153;DHT22;26371;56.992;23.912;2023-04-23T07:32:32;14.30;99.90
40153;DHT22;26371;56.992;23.912;2023-04-23T07:35:00;14.30;99.90
40153;DHT22;26371;56.992;23.912;2023-04-23T07:37:30;14.50;99.90
40153;DHT22;26371;56.992;23.912;2023-04-23T07:39:58;14.60;99.90
40153;DHT22;26371;56.992;23.912;2023-04-23T07:42:28;14.70;99.90
40153;DHT22;26371;56.992;23.912;2023-04-23T07:44:56;14.90;99.90
40153;DHT22;26371;56.992;23.912;2023-04-23T07:47:25;14.90;99.90
40153;DHT22;26371;56.992;23.912;2023-04-23T07:49:53;15.00;99.90
40153;DHT22;26371;56.992;23.912;2023-04-23T07:52:22;15.00;99.90
40153;DHT22;26371;56.992;23.912;2023-04-23T07:54:51;15.10;99.90
40153;DHT22;26371;56.992;23.912;2023-04-23T07:57:21;15.20;99.90
40153;DHT22;26371;56.992;23.912;2023-04-23T07:59:50;15.40;99.90
40153;DHT22;26371;56.992;23.912;2023-04-23T08:02:18;15.50;99.90
40153;DHT22;26371;56.992;23.912;2023-04-23T08:04:49;15.60;99.90
40153;DHT22;26371;56.992;23.912;2023-04-23T08:07:18;15.70;99.10
40153;DHT22;26371;56.992;23.912;2023-04-23T08:09:46;15.80;98.60
40153;DHT22;26371;56.992;23.912;2023-04-23T08:12:17;15.90;99.40
40153;DHT22;26371;56.992;23.912;2023-04-23T08:14:47;16.00;98.10
40153;DHT22;26371;56.992;23.912;2023-04-23T08:17:20;16.10;98.40
40153;DHT22;26371;56.992;23.912;2023-04-23T08:19:48;16.20;98.30
40153;DHT22;26371;56.992;23.912;2023-04-23T08:22:17;16.30;98.90
40153;DHT22;26371;56.992;23.912;2023-04-23T08:24:46;16.40;98.00
40153;DHT22;26371;56.992;23.912;2023-04-23T08:27:15;16.50;97.40
40153;DHT22;26371;56.992;23.912;2023-04-23T08:29:44;16.70;96.10
40153;DHT22;26371;56.992;23.912;2023-04-23T08:32:13;16.70;96.40
40153;DHT22;26371;56.992;23.912;2023-04-23T08:34:41;16.80;95.60
40153;DHT22;26371;56.992;23.912;2023-04-23T08:37:10;16.90;95.30
40153;DHT22;26371;56.992;23.912;2023-04-23T08:39:55;17.00;94.90
40153;DHT22;26371;56.992;23.912;2023-04-23T08:42:26;17.00;94.60
40153;DHT22;26371;56.992;23.912;2023-04-23T08:45:00;17.10;95.10
40153;DHT22;26371;56.992;23.912;2023-04-23T08:47:29;17.10;94.70
40153;DHT22;26371;56.992;23.912;2023-04-23T08:49:59;17.20;94.20
40153;DHT22;26371;56.992;23.912;2023-04-23T08:52:29;17.20;94.60
40153;DHT22;26371;56.992;23.912;2023-04-23T08:55:00;17.30;94.10
40153;DHT22;26371;56.992;23.912;2023-04-23T08:57:29;17.40;94.10
40153;DHT22;26371;56.992;23.912;2023-04-23T09:00:00;17.40;94.40
40153;DHT22;26371;56.992;23.912;2023-04-23T09:02:31;17.60;93.30
40153;DHT22;26371;56.992;23.912;2023-04-23T09:05:01;17.70;93.30
40153;DHT22;26371;56.992;23.912;2023-04-23T09:07:30;17.70;92.10
40153;DHT22;26371;56.992;23.912;2023-04-23T09:09:58;17.80;92.60
40153;DHT22;26371;56.992;23.912;2023-04-23T09:12:27;17.80;93.00
40153;DHT22;26371;56.992;23.912;2023-04-23T09:14:55;17.90;92.40
40153;DHT22;26371;56.992;23.912;2023-04-23T09:17:26;18.00;92.60
40153;DHT22;26371;56.992;23.912;2023-04-23T09:19:55;18.10;93.50
40153;DHT22;26371;56.992;23.912;2023-04-23T09:22:39;18.20;91.70
40153;DHT22;26371;56.992;23.912;2023-04-23T09:25:12;18.30;93.30
40153;DHT22;26371;56.992;23.912;2023-04-23T09:27:40;18.30;91.30
40153;DHT22;26371;56.992;23.912;2023-04-23T09:30:09;18.30;91.70
40153;DHT22;26371;56.992;23.912;2023-04-23T09:32:40;18.50;93.60
40153;DHT22;26371;56.992;23.912;2023-04-23T09:35:11;18.50;91.00
40153;DHT22;26371;56.992;23.912;2023-04-23T09:37:40;18.60;90.70
40153;DHT22;26371;56.992;23.912;2023-04-23T09:40:09;18.70;91.00
40153;DHT22;26371;56.992;23.912;2023-04-23T09:42:40;18.80;90.60
40153;DHT22;26371;56.992;23.912;2023-04-23T09:45:10;18.90;90.90
40153;DHT22;26371;56.992;23.912;2023-04-23T09:47:46;19.00;90.60
40153;DHT22;26371;56.992;23.912;2023-04-23T09:50:15;19.00;90.50
40153;DHT22;26371;56.992;23.912;2023-04-23T09:52:44;19.10;90.20
40153;DHT22;26371;56.992;23.912;2023-04-23T09:55:13;19.20;90.70
40153;DHT22;26371;56.992;23.912;2023-04-23T09:57:41;19.30;90.50
40153;DHT22;26371;56.992;23.912;2023-04-23T10:02:46;19.60;91.40
40153;DHT22;26371;56.992;23.912;2023-04-23T10:05:15;19.70;91.00
40153;DHT22;26371;56.992;23.912;2023-04-23T10:07:50;19.80;89.10
40153;DHT22;26371;56.992;23.912;2023-04-23T10:10:18;19.90;90.20
40153;DHT22;26371;56.992;23.912;2023-04-23T10:12:48;20.10;89.90
40153;DHT22;26371;56.992;23.912;2023-04-23T10:15:22;20.20;88.60
40153;DHT22;26371;56.992;23.912;2023-04-23T10:17:52;20.30;89.10
40153;DHT22;26371;56.992;23.912;2023-04-23T10:20:21;20.40;89.30
40153;DHT22;26371;56.992;23.912;2023-04-23T10:22:50;20.50;87.80
40153;DHT22;26371;56.992;23.912;2023-04-23T10:25:20;20.50;85.80
40153;DHT22;26371;56.992;23.912;2023-04-23T10:27:53;20.40;87.10
40153;DHT22;26371;56.992;23.912;2023-04-23T10:30:28;20.40;86.90
40153;DHT22;26371;56.992;23.912;2023-04-23T10:32:58;20.40;87.30
40153;DHT22;26371;56.992;23.912;2023-04-23T10:35:27;20.50;89.40
40153;DHT22;26371;56.992;23.912;2023-04-23T10:37:56;20.50;87.30
40153;DHT22;26371;56.992;23.912;2023-04-23T10:40:25;20.60;89.10
40153;DHT22;26371;56.992;23.912;2023-04-23T10:42:56;20.70;88.20
40153;DHT22;26371;56.992;23.912;2023-04-23T10:45:25;20.80;89.10
40153;DHT22;26371;56.992;23.912;2023-04-23T10:47:58;20.80;86.70
40153;DHT22;26371;56.992;23.912;2023-04-23T10:50:27;20.80;85.40
40153;DHT22;26371;56.992;23.912;2023-04-23T10:52:56;20.80;85.10
40153;DHT22;26371;56.992;23.912;2023-04-23T10:55:25;20.90;86.70
40153;DHT22;26371;56.992;23.912;2023-04-23T10:57:54;20.70;86.50
40153;DHT22;26371;56.992;23.912;2023-04-23T11:00:27;20.50;86.00
40153;DHT22;26371;56.992;23.912;2023-04-23T11:02:55;20.40;83.90
40153;DHT22;26371;56.992;23.912;2023-04-23T11:05:25;20.50;85.40
40153;DHT22;26371;56.992;23.912;2023-04-23T11:08:01;20.60;84.10
40153;DHT22;26371;56.992;23.912;2023-04-23T11:10:54;20.60;86.40
40153;DHT22;26371;56.992;23.912;2023-04-23T11:13:24;20.70;84.40
40153;DHT22;26371;56.992;23.912;2023-04-23T11:16:11;20.80;85.00
40153;DHT22;26371;56.992;23.912;2023-04-23T11:18:56;20.70;83.00
40153;DHT22;26371;56.992;23.912;2023-04-23T11:24:09;20.60;83.10
40153;DHT22;26371;56.992;23.912;2023-04-23T11:26:38;20.80;81.80
40153;DHT22;26371;56.992;23.912;2023-04-23T11:29:09;21.10;85.10
40153;DHT22;26371;56.992;23.912;2023-04-23T11:31:40;21.30;84.20
40153;DHT22;26371;56.992;23.912;2023-04-23T11:34:27;21.40;81.50
40153;DHT22;26371;56.992;23.912;2023-04-23T11:36:57;21.50;80.90
40153;DHT22;26371;56.992;23.912;2023-04-23T11:39:27;21.60;82.00
40153;DHT22;26371;56.992;23.912;2023-04-23T11:41:56;21.60;79.50
40153;DHT22;26371;56.992;23.912;2023-04-23T11:44:25;21.60;79.60
40153;DHT22;26371;56.992;23.912;2023-04-23T11:46:54;21.70;82.30
40153;DHT22;26371;56.992;23.912;2023-04-23T11:49:24;21.80;79.10
40153;DHT22;26371;56.992;23.912;2023-04-23T11:51:52;21.80;83.80
40153;DHT22;26371;56.992;23.912;2023-04-23T11:54:24;22.00;81.90
40153;DHT22;26371;56.992;23.912;2023-04-23T11:56:55;22.10;80.00
40153;DHT22;26371;56.992;23.912;2023-04-23T11:59:24;22.20;78.10
40153;DHT22;26371;56.992;23.912;2023-04-23T12:01:52;22.20;83.00
40153;DHT22;26371;56.992;23.912;2023-04-23T12:04:21;22.30;78.10
40153;DHT22;26371;56.992;23.912;2023-04-23T12:06:52;22.30;81.30
40153;DHT22;26371;56.992;23.912;2023-04-23T12:09:21;22.40;74.50
40153;DHT22;26371;56.992;23.912;2023-04-23T12:11:49;22.20;74.70
40153;DHT22;26371;56.992;23.912;2023-04-23T12:14:20;22.20;75.80
40153;DHT22;26371;56.992;23.912;2023-04-23T12:16:52;22.20;76.50
40153;DHT22;26371;56.992;23.912;2023-04-23T12:19:25;22.30;74.80
40153;DHT22;26371;56.992;23.912;2023-04-23T12:21:53;22.20;76.70
40153;DHT22;26371;56.992;23.912;2023-04-23T12:24:23;22.30;76.30
40153;DHT22;26371;56.992;23.912;2023-04-23T12:26:52;22.40;76.60
40153;DHT22;26371;56.992;23.912;2023-04-23T12:29:24;22.50;78.70
40153;DHT22;26371;56.992;23.912;2023-04-23T12:31:56;22.60;75.30
40153;DHT22;26371;56.992;23.912;2023-04-23T12:34:25;22.50;75.10
40153;DHT22;26371;56.992;23.912;2023-04-23T12:36:54;22.50;74.60
40153;DHT22;26371;56.992;23.912;2023-04-23T12:39:24;22.50;75.00
40153;DHT22;26371;56.992;23.912;2023-04-23T12:41:53;22.50;75.40
40153;DHT22;26371;56.992;23.912;2023-04-23T12:44:22;22.50;74.00
40153;DHT22;26371;56.992;23.912;2023-04-23T12:46:55;22.40;73.00
40153;DHT22;26371;56.992;23.912;2023-04-23T12:49:24;22.50;75.00
40153;DHT22;26371;56.992;23.912;2023-04-23T12:51:54;22.50;74.70
40153;DHT22;26371;56.992;23.912;2023-04-23T12:54:28;22.60;73.90
40153;DHT22;26371;56.992;23.912;2023-04-23T12:56:58;22.70;76.20
40153;DHT22;26371;56.992;23.912;2023-04-23T12:59:27;22.70;75.00
40153;DHT22;26371;56.992;23.912;2023-04-23T13:01:57;22.70;78.30
40153;DHT22;26371;56.992;23.912;2023-04-23T13:04:29;22.70;73.60
40153;DHT22;26371;56.992;23.912;2023-04-23T13:06:58;22.60;75.00
40153;DHT22;26371;56.992;23.912;2023-04-23T13:09:26;22.60;74.10
40153;DHT22;26371;56.992;23.912;2023-04-23T13:11:55;22.50;73.10
40153;DHT22;26371;56.992;23.912;2023-04-23T13:14:23;22.50;74.20
40153;DHT22;26371;56.992;23.912;2023-04-23T13:16:54;22.50;73.30
40153;DHT22;26371;56.992;23.912;2023-04-23T13:19:25;22.60;76.60
40153;DHT22;26371;56.992;23.912;2023-04-23T13:21:53;22.70;73.80
40153;DHT22;26371;56.992;23.912;2023-04-23T13:24:21;22.60;74.80
40153;DHT22;26371;56.992;23.912;2023-04-23T13:26:52;22.70;73.30
40153;DHT22;26371;56.992;23.912;2023-04-23T13:29:20;22.60;75.40
40153;DHT22;26371;56.992;23.912;2023-04-23T13:31:48;22.60;75.40
40153;DHT22;26371;56.992;23.912;2023-04-23T13:34:17;22.60;76.20
40153;DHT22;26371;56.992;23.912;2023-04-23T13:36:47;22.50;73.30
40153;DHT22;26371;56.992;23.912;2023-04-23T13:39:15;22.40;77.30
40153;DHT22;26371;56.992;23.912;2023-04-23T13:41:44;22.30;72.80
40153;DHT22;26371;56.992;23.912;2023-04-23T13:44:29;22.20;73.50
40153;DHT22;26371;56.992;23.912;2023-04-23T13:46:57;22.10;73.00
40153;DHT22;26371;56.992;23.912;2023-04-23T13:49:26;22.10;74.20
40153;DHT22;26371;56.992;23.912;2023-04-23T13:51:57;22.20;73.20
40153;DHT22;26371;56.992;23.912;2023-04-23T13:54:30;22.20;74.20
40153;DHT22;26371;56.992;23.912;2023-04-23T13:56:58;22.20;72.60
40153;DHT22;26371;56.992;23.912;2023-04-23T13:59:27;22.10;74.50
40153;DHT22;26371;56.992;23.912;2023-04-23T14:01:55;22.10;72.60
40153;DHT22;26371;56.992;23.912;2023-04-23T14:04:23;22.10;73.00
40153;DHT22;26371;56.992;23.912;2023-04-23T14:06:53;22.10;73.50
40153;DHT22;26371;56.992;23.912;2023-04-23T14:09:23;22.10;73.60
40153;DHT22;26371;56.992;23.912;2023-04-23T14:11:52;22.10;73.20
40153;DHT22;26371;56.992;23.912;2023-04-23T14:14:20;22.20;72.40
40153;DHT22;26371;56.992;23.912;2023-04-23T14:16:49;22.20;74.60
40153;DHT22;26371;56.992;23.912;2023-04-23T14:19:17;22.20;72.50
40153;DHT22;26371;56.992;23.912;2023-04-23T14:21:46;22.30;70.90
40153;DHT22;26371;56.992;23.912;2023-04-23T14:24:16;22.30;72.00
40153;DHT22;26371;56.992;23.912;2023-04-23T14:26:46;22.40;72.50
40153;DHT22;26371;56.992;23.912;2023-04-23T14:29:22;22.40;71.10
40153;DHT22;26371;56.992;23.912;2023-04-23T14:31:51;22.40;70.80
40153;DHT22;26371;56.992;23.912;2023-04-23T14:34:19;22.30;69.50
40153;DHT22;26371;56.992;23.912;2023-04-23T14:36:48;22.30;72.50
40153;DHT22;26371;56.992;23.912;2023-04-23T14:39:20;22.30;69.70
40153;DHT22;26371;56.992;23.912;2023-04-23T14:41:50;22.30;69.80
40153;DHT22;26371;56.992;23.912;2023-04-23T14:44:18;22.30;70.60
40153;DHT22;26371;56.992;23.912;2023-04-23T14:46:49;22.40;70.80
40153;DHT22;26371;56.992;23.912;2023-04-23T14:49:18;22.50;69.50
40153;DHT22;26371;56.992;23.912;2023-04-23T14:51:46;22.40;69.90
40153;DHT22;26371;56.992;23.912;2023-04-23T14:54:16;22.40;68.40
40153;DHT22;26371;56.992;23.912;2023-04-23T14:56:45;22.40;68.40
40153;DHT22;26371;56.992;23.912;2023-04-23T14:59:14;22.50;70.00
40153;DHT22;26371;56.992;23.912;2023-04-23T15:01:43;22.70;70.20
40153;DHT22;26371;56.992;23.912;2023-04-23T15:04:11;22.80;68.00
40153;DHT22;26371;56.992;23.912;2023-04-23T15:06:42;22.90;69.70
40153;DHT22;26371;56.992;23.912;2023-04-23T15:09:10;23.00;69.90
40153;DHT22;26371;56.992;23.912;2023-04-23T15:11:39;23.00;67.00
40153;DHT22;26371;56.992;23.912;2023-04-23T15:14:17;23.00;68.40
40153;DHT22;26371;56.992;23.912;2023-04-23T15:16:46;23.00;68.00
40153;DHT22;26371;56.992;23.912;2023-04-23T15:19:16;23.10;68.60
40153;DHT22;26371;56.992;23.912;2023-04-23T15:21:45;23.10;68.20
40153;DHT22;26371;56.992;23.912;2023-04-23T15:24:13;23.10;68.60
40153;DHT22;26371;56.992;23.912;2023-04-23T15:26:44;23.20;68.00
40153;DHT22;26371;56.992;23.912;2023-04-23T15:29:13;23.20;66.30
40153;DHT22;26371;56.992;23.912;2023-04-23T15:31:42;23.10;67.40
40153;DHT22;26371;56.992;23.912;2023-04-23T15:34:11;22.90;68.00
40153;DHT22;26371;56.992;23.912;2023-04-23T15:36:39;23.00;68.50
40153;DHT22;26371;56.992;23.912;2023-04-23T15:39:07;23.00;67.70
40153;DHT22;26371;56.992;23.912;2023-04-23T15:41:36;22.80;67.80
40153;DHT22;26371;56.992;23.912;2023-04-23T15:44:10;22.60;66.90
40153;DHT22;26371;56.992;23.912;2023-04-23T15:46:38;22.10;68.10
40153;DHT22;26371;56.992;23.912;2023-04-23T15:49:08;21.90;68.50
40153;DHT22;26371;56.992;23.912;2023-04-23T15:51:36;21.70;68.70
40153;DHT22;26371;56.992;23.912;2023-04-23T15:54:05;21.60;69.80
40153;DHT22;26371;56.992;23.912;2023-04-23T15:56:35;21.50;68.80
40153;DHT22;26371;56.992;23.912;2023-04-23T15:59:03;21.40;68.10
40153;DHT22;26371;56.992;23.912;2023-04-23T16:01:32;21.30;69.20
40153;DHT22;26371;56.992;23.912;2023-04-23T16:04:00;21.30;71.20